Time;durP1;ratioP1;P1;durP2;ratioP2;P2;SDS_P1;SDS_P2;PMS_P1;PMS_P2;Temp;Humidity;BMP_temperature;BMP_pressure;BME280_temperature;BME280_humidity;BME280_pressure;Samples;Min_cycle;Max_cycle;Signal;HPM_P1;HPM_P2
2021/12/26 00:01:15;;;;;;;8.77;4.78;;;;;;;;;;5072150;28;20124;-88
2021/12/26 00:03:41;;;;;;;8.77;3.80;;;;;;;;;;5054268;28;20048;-88
2021/12/26 00:06:11;;;;;;;6.18;3.78;;;;;;;;;;5072499;28;20051;-88
2021/12/26 00:08:37;;;;;;;9.40;4.38;;;;;;;;;;5072130;28;20396;-88
2021/12/26 00:11:04;;;;;;;8.00;3.92;;;;;;;;;;5071878;28;20036;-88
2021/12/26 00:13:30;;;;;;;7.03;4.30;;;;;;;;;;5053886;28;20024;-88
2021/12/26 00:15:55;;;;;;;6.20;3.53;;;;;;;;;;5054396;28;20024;-88
2021/12/26 00:18:20;;;;;;;11.90;3.60;;;;;;;;;;5072091;28;20524;-87
2021/12/26 00:20:47;;;;;;;12.77;3.75;;;;;;;;;;5071826;28;20024;-88
2021/12/26 00:23:13;;;;;;;6.72;3.78;;;;;;;;;;5071709;28;20109;-88
2021/12/26 00:25:38;;;;;;;7.75;3.70;;;;;;;;;;5071598;28;20150;-88
2021/12/26 00:28:04;;;;;;;7.70;4.32;;;;;;;;;;5071897;28;20027;-88
2021/12/26 00:30:29;;;;;;;10.23;4.88;;;;;;;;;;5053833;28;20028;-88
2021/12/26 00:32:54;;;;;;;7.65;4.25;;;;;;;;;;5053184;28;20033;-88
2021/12/26 00:35:20;;;;;;;7.63;4.88;;;;;;;;;;5053471;28;20109;-88
2021/12/26 00:37:46;;;;;;;10.82;3.95;;;;;;;;;;5053799;28;20040;-88
2021/12/26 00:40:12;;;;;;;9.23;4.38;;;;;;;;;;5071461;28;20016;-88
2021/12/26 00:42:38;;;;;;;9.57;3.88;;;;;;;;;;5053550;28;20028;-88
2021/12/26 00:45:04;;;;;;;10.18;4.78;;;;;;;;;;5053381;28;20082;-88
2021/12/26 00:47:32;;;;;;;8.55;4.32;;;;;;;;;;5053979;28;20476;-88
2021/12/26 00:49:57;;;;;;;8.45;4.20;;;;;;;;;;5072807;28;20039;-88
2021/12/26 00:52:22;;;;;;;9.20;4.38;;;;;;;;;;5073035;28;20017;-88
2021/12/26 00:54:48;;;;;;;8.95;4.57;;;;;;;;;;5071446;28;20027;-88
2021/12/26 00:57:13;;;;;;;14.02;4.93;;;;;;;;;;5071149;28;20047;-88
2021/12/26 00:59:38;;;;;;;8.93;4.32;;;;;;;;;;5052923;28;20086;-88
2021/12/26 01:02:04;;;;;;;9.43;5.68;;;;;;;;;;5053195;28;20052;-88
2021/12/26 01:04:29;;;;;;;7.63;4.57;;;;;;;;;;5053301;28;20047;-88
2021/12/26 01:06:55;;;;;;;8.50;4.63;;;;;;;;;;5071009;28;20053;-88
2021/12/26 01:09:25;;;;;;;9.15;4.95;;;;;;;;;;5052871;28;20033;-88
2021/12/26 01:11:54;;;;;;;8.23;4.53;;;;;;;;;;5052820;28;20124;-88
2021/12/26 01:14:26;;;;;;;9.88;4.25;;;;;;;;;;5053122;28;20484;-88
2021/12/26 01:17:02;;;;;;;10.27;4.03;;;;;;;;;;5053183;28;20025;-88
2021/12/26 01:19:34;;;;;;;6.32;3.90;;;;;;;;;;5071026;28;20028;-88
2021/12/26 01:21:59;;;;;;;6.82;3.70;;;;;;;;;;5070944;28;20028;-88
2021/12/26 01:24:24;;;;;;;10.18;3.75;;;;;;;;;;5052700;28;20804;-88
2021/12/26 01:26:50;;;;;;;9.07;3.97;;;;;;;;;;5070748;28;20020;-88
2021/12/26 01:29:15;;;;;;;7.97;4.40;;;;;;;;;;5053033;28;20043;-88
2021/12/26 01:31:40;;;;;;;8.60;4.50;;;;;;;;;;5070642;28;20020;-88
2021/12/26 01:34:06;;;;;;;7.97;4.13;;;;;;;;;;5052528;28;20024;-88
2021/12/26 01:36:32;;;;;;;8.10;4.72;;;;;;;;;;5070951;28;20024;-88
2021/12/26 01:38:59;;;;;;;14.32;5.80;;;;;;;;;;5071114;28;20024;-88
2021/12/26 01:41:25;;;;;;;11.13;4.03;;;;;;;;;;5052607;28;20051;-88
2021/12/26 01:43:56;;;;;;;6.10;3.53;;;;;;;;;;5071122;28;20020;-88
2021/12/26 01:46:22;;;;;;;7.55;4.20;;;;;;;;;;5072116;28;20024;-88
2021/12/26 01:48:47;;;;;;;7.03;3.63;;;;;;;;;;5072274;28;20034;-88
2021/12/26 01:51:12;;;;;;;4.03;3.45;;;;;;;;;;5054143;28;20483;-88
2021/12/26 01:53:39;;;;;;;7.47;3.50;;;;;;;;;;5070886;28;20077;-88
2021/12/26 01:56:11;;;;;;;7.35;3.50;;;;;;;;;;5071391;28;20023;-88
2021/12/26 01:58:37;;;;;;;5.70;3.90;;;;;;;;;;5055347;28;20480;-88
2021/12/26 02:01:10;;;;;;;6.85;3.55;;;;;;;;;;5072166;28;20098;-88
2021/12/26 02:03:37;;;;;;;7.82;3.83;;;;;;;;;;5071109;28;20103;-88
2021/12/26 02:06:03;;;;;;;8.32;3.45;;;;;;;;;;5053796;28;20062;-88
2021/12/26 02:08:28;;;;;;;8.88;3.13;;;;;;;;;;5070722;28;20438;-88
2021/12/26 02:10:53;;;;;;;12.68;3.67;;;;;;;;;;5070200;28;20032;-88
2021/12/26 02:13:18;;;;;;;6.63;3.72;;;;;;;;;;5070357;28;20035;-88
2021/12/26 02:15:44;;;;;;;6.82;3.67;;;;;;;;;;5070384;28;20104;-88
2021/12/26 02:18:09;;;;;;;7.97;4.30;;;;;;;;;;5070840;28;20024;-87
2021/12/26 02:23:14;;;;;;;8.20;4.32;;;;;;;;;;5071997;28;20095;-89
2021/12/26 02:28:11;;;;;;;6.30;3.33;;;;;;;;;;5073164;28;20028;-87
2021/12/26 02:30:36;;;;;;;9.60;4.03;;;;;;;;;;5054894;28;20694;-88
2021/12/26 02:33:04;;;;;;;8.60;3.75;;;;;;;;;;5072837;28;20112;-88
2021/12/26 02:35:29;;;;;;;9.13;4.93;;;;;;;;;;5072963;28;20016;-88
2021/12/26 02:37:54;;;;;;;10.15;4.43;;;;;;;;;;5054817;28;20028;-88
2021/12/26 02:40:19;;;;;;;6.32;3.85;;;;;;;;;;5054919;28;20075;-87
2021/12/26 02:42:45;;;;;;;7.60;4.20;;;;;;;;;;5054644;28;20031;-87
2021/12/26 02:45:10;;;;;;;5.85;3.97;;;;;;;;;;5073036;28;20613;-87
2021/12/26 02:47:38;;;;;;;9.73;4.80;;;;;;;;;;5072740;28;20020;-88
2021/12/26 02:50:05;;;;;;;6.75;4.03;;;;;;;;;;5072898;28;20025;-88
2021/12/26 02:52:30;;;;;;;8.00;4.22;;;;;;;;;;5072567;28;20028;-88
2021/12/26 02:54:57;;;;;;;7.38;4.43;;;;;;;;;;5072719;28;20106;-88
2021/12/26 02:57:22;;;;;;;6.13;4.07;;;;;;;;;;5054848;28;20064;-88
2021/12/26 02:59:47;;;;;;;6.85;3.88;;;;;;;;;;5054408;28;20053;-88
2021/12/26 03:02:12;;;;;;;7.63;4.25;;;;;;;;;;5054880;28;20017;-88
2021/12/26 03:04:37;;;;;;;6.90;4.40;;;;;;;;;;5072614;28;20017;-88
2021/12/26 03:07:03;;;;;;;7.30;4.35;;;;;;;;;;5054898;28;20016;-88
2021/12/26 03:09:31;;;;;;;9.05;4.68;;;;;;;;;;5058043;28;20043;-88
2021/12/26 03:11:57;;;;;;;9.55;5.18;;;;;;;;;;5076345;28;20097;-88
2021/12/26 03:14:22;;;;;;;6.85;4.72;;;;;;;;;;5058222;28;20420;-88
2021/12/26 03:16:48;;;;;;;8.38;4.57;;;;;;;;;;5076813;28;20027;-87
2021/12/26 03:19:13;;;;;;;6.50;4.28;;;;;;;;;;5058165;28;20055;-88
2021/12/26 03:21:38;;;;;;;8.57;3.95;;;;;;;;;;5058204;28;20020;-88
2021/12/26 03:24:04;;;;;;;5.75;4.57;;;;;;;;;;5075821;28;20016;-88
2021/12/26 03:26:29;;;;;;;7.57;4.60;;;;;;;;;;5076024;28;20023;-88
2021/12/26 03:28:54;;;;;;;8.00;4.53;;;;;;;;;;5075601;28;20028;-88
2021/12/26 03:31:19;;;;;;;5.68;4.30;;;;;;;;;;5057770;28;20032;-88
2021/12/26 03:33:45;;;;;;;7.47;4.93;;;;;;;;;;5058118;28;20024;-88
2021/12/26 03:36:10;;;;;;;10.55;4.97;;;;;;;;;;5075964;28;20409;-88
2021/12/26 03:38:36;;;;;;;6.30;4.47;;;;;;;;;;5075702;28;20015;-88
2021/12/26 03:41:01;;;;;;;10.70;5.18;;;;;;;;;;5075882;28;20008;-88
2021/12/26 03:43:26;;;;;;;6.28;4.72;;;;;;;;;;5057620;28;20008;-88
2021/12/26 03:45:53;;;;;;;8.65;5.53;;;;;;;;;;5075658;28;20031;-88
2021/12/26 03:48:19;;;;;;;7.97;4.65;;;;;;;;;;5057690;28;20016;-88
2021/12/26 03:50:44;;;;;;;6.47;4.28;;;;;;;;;;5057653;28;20066;-87
2021/12/26 03:53:10;;;;;;;6.03;4.50;;;;;;;;;;5057451;28;20021;-87
2021/12/26 03:55:36;;;;;;;10.60;4.88;;;;;;;;;;5075312;28;20052;-87
2021/12/26 03:58:02;;;;;;;12.50;5.10;;;;;;;;;;5075017;28;20012;-87
2021/12/26 04:00:27;;;;;;;10.75;5.63;;;;;;;;;;5074627;28;20503;-87
2021/12/26 04:02:53;;;;;;;8.68;5.20;;;;;;;;;;5057054;28;20056;-87
2021/12/26 04:05:18;;;;;;;9.68;5.10;;;;;;;;;;5075185;28;20028;-88
2021/12/26 04:07:44;;;;;;;7.55;5.07;;;;;;;;;;5073823;28;20107;-87
2021/12/26 04:10:10;;;;;;;10.27;5.93;;;;;;;;;;5055178;28;20081;-88
2021/12/26 04:12:37;;;;;;;6.82;4.72;;;;;;;;;;5072205;28;20511;-88
2021/12/26 04:15:06;;;;;;;8.68;5.07;;;;;;;;;;5054496;28;20759;-88
2021/12/26 04:17:32;;;;;;;8.02;4.80;;;;;;;;;;5053928;28;20024;-88
2021/12/26 04:19:57;;;;;;;7.85;4.55;;;;;;;;;;5053549;28;20065;-88
2021/12/26 04:22:22;;;;;;;8.32;5.00;;;;;;;;;;5053782;28;20086;-87
2021/12/26 04:24:48;;;;;;;8.15;4.93;;;;;;;;;;5053794;28;20031;-88
2021/12/26 04:27:13;;;;;;;6.95;4.47;;;;;;;;;;5071889;28;20016;-88
2021/12/26 04:29:38;;;;;;;9.43;5.03;;;;;;;;;;5053578;28;20036;-88
2021/12/26 04:32:04;;;;;;;6.68;4.78;;;;;;;;;;5053742;28;20043;-88
2021/12/26 04:34:29;;;;;;;4.75;3.72;;;;;;;;;;5054188;28;20110;-88
2021/12/26 04:36:54;;;;;;;9.55;4.45;;;;;;;;;;5071955;28;20047;-88
2021/12/26 04:39:20;;;;;;;10.77;4.07;;;;;;;;;;5071643;28;20806;-88
2021/12/26 04:41:46;;;;;;;9.48;4.32;;;;;;;;;;5053579;28;20388;-88
2021/12/26 04:44:12;;;;;;;7.47;4.70;;;;;;;;;;5071327;28;20105;-88
2021/12/26 04:46:37;;;;;;;10.75;4.63;;;;;;;;;;5053298;28;20105;-88
2021/12/26 04:49:02;;;;;;;8.18;4.47;;;;;;;;;;5053291;28;20032;-88
2021/12/26 04:51:27;;;;;;;8.55;4.25;;;;;;;;;;5053349;28;20027;-88
2021/12/26 04:53:53;;;;;;;7.40;4.38;;;;;;;;;;5071428;28;20392;-88
2021/12/26 04:56:18;;;;;;;9.70;4.72;;;;;;;;;;5071730;28;20133;-88
2021/12/26 04:58:43;;;;;;;8.32;5.38;;;;;;;;;;5071353;28;20020;-88
2021/12/26 05:01:08;;;;;;;7.65;4.60;;;;;;;;;;5053047;28;20396;-88
2021/12/26 05:03:34;;;;;;;6.35;4.35;;;;;;;;;;5053035;28;20025;-88
2021/12/26 05:05:59;;;;;;;9.57;4.75;;;;;;;;;;5071173;28;20028;-88
2021/12/26 05:08:24;;;;;;;9.95;4.03;;;;;;;;;;5053296;28;20054;-88
2021/12/26 05:10:49;;;;;;;6.63;4.32;;;;;;;;;;5071166;28;20525;-88
2021/12/26 05:13:14;;;;;;;15.27;4.78;;;;;;;;;;5053348;28;20157;-88
2021/12/26 05:15:40;;;;;;;6.28;4.53;;;;;;;;;;5071393;28;20020;-88
2021/12/26 05:18:06;;;;;;;6.65;4.18;;;;;;;;;;5071207;28;20107;-88
2021/12/26 05:20:31;;;;;;;9.95;3.70;;;;;;;;;;5052737;28;20115;-88
2021/12/26 05:22:59;;;;;;;8.07;4.10;;;;;;;;;;5052448;28;20047;-87
2021/12/26 05:25:24;;;;;;;4.93;3.92;;;;;;;;;;5070824;28;20016;-87
2021/12/26 05:27:50;;;;;;;5.63;3.92;;;;;;;;;;5053147;28;20022;-87
2021/12/26 05:30:16;;;;;;;7.05;4.32;;;;;;;;;;5053091;28;20024;-88
2021/12/26 05:32:42;;;;;;;5.63;3.97;;;;;;;;;;5053880;28;20025;-87
2021/12/26 05:35:08;;;;;;;6.72;4.18;;;;;;;;;;5071083;28;20154;-87
2021/12/26 05:37:33;;;;;;;5.57;3.60;;;;;;;;;;5052445;28;20032;-87
2021/12/26 05:40:00;;;;;;;7.43;4.50;;;;;;;;;;5052462;28;20043;-88
2021/12/26 05:42:26;;;;;;;9.13;4.75;;;;;;;;;;5070450;28;20046;-88
2021/12/26 05:44:51;;;;;;;7.72;4.80;;;;;;;;;;5070632;28;20024;-88
2021/12/26 05:47:16;;;;;;;6.03;4.32;;;;;;;;;;5070980;28;20484;-88
2021/12/26 05:49:42;;;;;;;6.95;4.57;;;;;;;;;;5071483;28;20137;-87
2021/12/26 05:52:09;;;;;;;8.85;4.70;;;;;;;;;;5071380;28;20155;-87
2021/12/26 05:54:34;;;;;;;8.05;5.00;;;;;;;;;;5071418;28;20823;-88
2021/12/26 05:57:00;;;;;;;7.70;4.75;;;;;;;;;;5070987;28;20013;-88
2021/12/26 05:59:26;;;;;;;7.70;4.72;;;;;;;;;;5053069;28;20098;-87
2021/12/26 06:01:51;;;;;;;5.90;4.32;;;;;;;;;;5070417;28;20040;-87
2021/12/26 06:04:16;;;;;;;5.93;5.07;;;;;;;;;;5070709;28;20028;-88
2021/12/26 06:06:43;;;;;;;8.75;4.75;;;;;;;;;;5052622;28;20115;-88
2021/12/26 06:09:09;;;;;;;9.80;4.65;;;;;;;;;;5052669;28;20128;-88
2021/12/26 06:11:34;;;;;;;8.82;4.97;;;;;;;;;;5070420;28;20095;-87
2021/12/26 06:13:59;;;;;;;8.52;4.75;;;;;;;;;;5052373;28;20115;-88
2021/12/26 06:16:24;;;;;;;6.63;4.97;;;;;;;;;;5052686;28;20024;-88
2021/12/26 06:18:50;;;;;;;6.80;4.75;;;;;;;;;;5070323;28;20020;-88
2021/12/26 06:21:15;;;;;;;10.02;5.07;;;;;;;;;;5070475;28;20411;-88
2021/12/26 06:23:40;;;;;;;8.10;5.00;;;;;;;;;;5052581;28;20032;-88
2021/12/26 06:26:05;;;;;;;7.15;4.80;;;;;;;;;;5052029;28;20024;-88
2021/12/26 06:28:31;;;;;;;7.30;4.68;;;;;;;;;;5051660;28;20047;-88
2021/12/26 06:30:56;;;;;;;5.72;4.32;;;;;;;;;;5052230;28;20074;-88
2021/12/26 06:33:21;;;;;;;9.82;4.95;;;;;;;;;;5051841;28;20025;-88
2021/12/26 06:35:46;;;;;;;6.53;4.50;;;;;;;;;;5051946;28;20488;-88
2021/12/26 06:38:12;;;;;;;7.88;5.15;;;;;;;;;;5070273;28;20036;-88
2021/12/26 06:40:37;;;;;;;9.32;5.45;;;;;;;;;;5051751;28;20017;-87
2021/12/26 06:43:02;;;;;;;7.18;5.28;;;;;;;;;;5054455;28;20016;-88
2021/12/26 06:45:27;;;;;;;8.43;5.10;;;;;;;;;;5055822;28;20024;-87
2021/12/26 06:47:54;;;;;;;9.98;5.28;;;;;;;;;;5055666;28;20040;-87
2021/12/26 06:50:20;;;;;;;9.75;6.28;;;;;;;;;;5055637;28;20047;-87
2021/12/26 06:52:45;;;;;;;7.20;4.90;;;;;;;;;;5056286;28;20554;-87
2021/12/26 06:55:11;;;;;;;13.40;5.68;;;;;;;;;;5055902;28;20379;-87
2021/12/26 06:57:36;;;;;;;10.25;5.88;;;;;;;;;;5073810;28;20476;-87
2021/12/26 07:00:04;;;;;;;10.00;6.10;;;;;;;;;;5073215;28;20129;-87
2021/12/26 07:02:29;;;;;;;11.02;6.38;;;;;;;;;;5073357;28;20024;-87
2021/12/26 07:04:55;;;;;;;12.40;5.40;;;;;;;;;;5055605;28;20078;-88
2021/12/26 07:07:20;;;;;;;12.63;6.13;;;;;;;;;;5073909;28;20017;-88
2021/12/26 07:09:45;;;;;;;12.60;6.15;;;;;;;;;;5055360;28;20119;-88
2021/12/26 07:12:11;;;;;;;8.65;5.03;;;;;;;;;;5073100;28;20020;-87
2021/12/26 07:14:36;;;;;;;7.13;5.03;;;;;;;;;;5073064;28;20017;-88
2021/12/26 07:17:01;;;;;;;8.27;5.50;;;;;;;;;;5073231;28;20023;-87
2021/12/26 07:19:26;;;;;;;7.45;4.78;;;;;;;;;;5056954;28;20377;-88
2021/12/26 07:21:52;;;;;;;10.02;5.15;;;;;;;;;;5057452;28;20115;-87
2021/12/26 07:24:17;;;;;;;8.02;5.45;;;;;;;;;;5074350;28;20113;-88
2021/12/26 07:26:42;;;;;;;11.32;5.20;;;;;;;;;;5056903;28;20021;-87
2021/12/26 07:29:07;;;;;;;6.50;4.80;;;;;;;;;;5075357;28;20033;-88
2021/12/26 07:31:32;;;;;;;8.98;4.97;;;;;;;;;;5057491;28;20024;-88
2021/12/26 07:33:58;;;;;;;7.43;5.50;;;;;;;;;;5075573;28;20020;-87
2021/12/26 07:36:23;;;;;;;8.32;5.65;;;;;;;;;;5075425;28;20103;-88
2021/12/26 07:38:48;;;;;;;68.80;37.47;;;;;;;;;;5055522;28;20027;-87
2021/12/26 07:41:13;;;;;;;44.50;26.15;;;;;;;;;;5072631;28;20472;-87
2021/12/26 07:43:39;;;;;;;39.42;22.48;;;;;;;;;;5054596;28;20090;-88
2021/12/26 07:46:04;;;;;;;25.25;13.68;;;;;;;;;;5054556;28;20020;-87
2021/12/26 07:48:29;;;;;;;18.08;10.68;;;;;;;;;;5054417;28;20019;-87
2021/12/26 07:50:54;;;;;;;13.85;8.25;;;;;;;;;;5054833;28;20029;-87
2021/12/26 07:53:20;;;;;;;14.27;7.82;;;;;;;;;;5054875;28;20669;-88
2021/12/26 07:55:45;;;;;;;16.70;10.60;;;;;;;;;;5072822;28;20456;-87
2021/12/26 07:58:10;;;;;;;18.10;11.82;;;;;;;;;;5054671;28;20029;-87
2021/12/26 08:00:36;;;;;;;12.38;7.28;;;;;;;;;;5072662;28;20062;-88
2021/12/26 08:03:01;;;;;;;8.38;6.80;;;;;;;;;;5054402;28;20419;-87
2021/12/26 08:05:27;;;;;;;11.77;7.10;;;;;;;;;;5072266;28;20029;-87
2021/12/26 08:07:52;;;;;;;9.23;5.93;;;;;;;;;;5054273;28;20023;-87
2021/12/26 08:10:18;;;;;;;7.18;5.22;;;;;;;;;;5054365;28;20033;-87
2021/12/26 08:12:43;;;;;;;11.30;6.30;;;;;;;;;;5072240;28;20154;-88
2021/12/26 08:15:08;;;;;;;9.83;6.30;;;;;;;;;;5053711;28;20480;-88
2021/12/26 08:17:35;;;;;;;10.18;5.88;;;;;;;;;;5054060;28;20275;-87
2021/12/26 08:20:01;;;;;;;10.85;7.55;;;;;;;;;;5071941;28;20019;-87
2021/12/26 08:22:26;;;;;;;11.40;6.93;;;;;;;;;;5053897;28;20021;-87
2021/12/26 08:24:51;;;;;;;13.60;7.93;;;;;;;;;;5053892;28;20052;-87
2021/12/26 08:27:16;;;;;;;8.50;6.50;;;;;;;;;;5053828;28;20039;-87
2021/12/26 08:29:42;;;;;;;13.73;8.23;;;;;;;;;;5071970;28;20051;-87
2021/12/26 08:32:11;;;;;;;11.07;7.75;;;;;;;;;;5053865;28;20026;-87
2021/12/26 08:34:36;;;;;;;12.05;8.73;;;;;;;;;;5053948;28;20031;-87
2021/12/26 08:37:03;;;;;;;11.27;7.97;;;;;;;;;;5072626;28;20415;-87
2021/12/26 08:39:29;;;;;;;14.43;7.85;;;;;;;;;;5054496;28;20021;-88
2021/12/26 08:41:55;;;;;;;15.35;8.23;;;;;;;;;;5072881;28;20066;-88
2021/12/26 08:44:21;;;;;;;15.05;7.15;;;;;;;;;;5053911;28;20028;-87
2021/12/26 08:46:46;;;;;;;13.00;7.25;;;;;;;;;;5071579;28;20119;-87
2021/12/26 08:49:12;;;;;;;12.43;6.30;;;;;;;;;;5053265;28;20029;-87
2021/12/26 08:51:37;;;;;;;12.93;7.57;;;;;;;;;;5071110;28;20394;-87
2021/12/26 08:54:02;;;;;;;11.43;6.55;;;;;;;;;;5071844;28;20017;-87
2021/12/26 08:56:28;;;;;;;11.98;6.28;;;;;;;;;;5073403;28;20070;-87
2021/12/26 08:58:53;;;;;;;14.70;5.82;;;;;;;;;;5055700;28;20059;-87
2021/12/26 09:01:18;;;;;;;9.93;6.63;;;;;;;;;;5073856;28;20054;-87
2021/12/26 09:03:44;;;;;;;13.60;5.95;;;;;;;;;;5055717;28;20376;-87
2021/12/26 09:06:09;;;;;;;8.50;5.30;;;;;;;;;;5054781;28;20349;-87
2021/12/26 09:08:34;;;;;;;9.50;5.30;;;;;;;;;;5073647;28;20102;-87
2021/12/26 09:10:59;;;;;;;9.13;5.33;;;;;;;;;;5073659;28;20017;-87
2021/12/26 09:13:24;;;;;;;12.63;5.73;;;;;;;;;;5073755;28;20247;-88
2021/12/26 09:15:50;;;;;;;7.85;4.63;;;;;;;;;;5055789;28;20267;-87
2021/12/26 09:18:15;;;;;;;9.40;5.03;;;;;;;;;;5073432;28;20760;-87
2021/12/26 09:20:40;;;;;;;7.70;4.88;;;;;;;;;;5073498;28;20456;-87
2021/12/26 09:23:05;;;;;;;6.93;4.40;;;;;;;;;;5055267;28;20350;-87
2021/12/26 09:25:31;;;;;;;6.70;4.22;;;;;;;;;;5073647;28;20027;-88
2021/12/26 09:27:56;;;;;;;7.63;3.75;;;;;;;;;;5073324;28;20028;-87
2021/12/26 09:30:21;;;;;;;9.55;3.85;;;;;;;;;;5055573;28;20028;-87
2021/12/26 09:32:46;;;;;;;6.72;4.25;;;;;;;;;;5055477;28;20056;-87
2021/12/26 09:35:13;;;;;;;7.40;3.83;;;;;;;;;;5073632;28;20009;-87
2021/12/26 09:37:38;;;;;;;7.15;4.25;;;;;;;;;;5073423;28;20017;-87
2021/12/26 09:40:04;;;;;;;11.65;5.43;;;;;;;;;;5055204;28;20035;-87
2021/12/26 09:42:29;;;;;;;9.60;5.50;;;;;;;;;;5054783;28;20107;-87
2021/12/26 09:44:54;;;;;;;11.73;5.10;;;;;;;;;;5054936;28;20023;-87
2021/12/26 09:47:19;;;;;;;13.00;6.20;;;;;;;;;;5055158;28;20448;-87
2021/12/26 09:49:45;;;;;;;20.17;8.05;;;;;;;;;;5074717;28;20093;-87
2021/12/26 09:52:10;;;;;;;14.95;8.32;;;;;;;;;;5054967;28;20460;-88
2021/12/26 09:54:36;;;;;;;7.68;4.82;;;;;;;;;;5054806;28;20123;-89
2021/12/26 09:57:02;;;;;;;9.65;4.15;;;;;;;;;;5053467;28;20017;-88
2021/12/26 09:59:27;;;;;;;6.03;4.05;;;;;;;;;;5070834;28;20532;-88
2021/12/26 10:01:56;;;;;;;8.10;4.63;;;;;;;;;;5070268;28;20020;-88
2021/12/26 10:04:23;;;;;;;6.05;3.83;;;;;;;;;;5070470;28;20027;-88
2021/12/26 10:06:50;;;;;;;10.48;4.88;;;;;;;;;;5070422;28;20048;-88
2021/12/26 10:09:15;;;;;;;10.13;4.70;;;;;;;;;;5052098;28;20043;-88
2021/12/26 10:11:44;;;;;;;7.00;4.38;;;;;;;;;;5052297;28;20016;-89
2021/12/26 10:14:14;;;;;;;7.03;4.18;;;;;;;;;;5070263;28;20033;-89
2021/12/26 10:16:41;;;;;;;8.65;4.57;;;;;;;;;;5071664;28;20491;-89
2021/12/26 10:19:08;;;;;;;9.20;5.75;;;;;;;;;;5058051;28;20024;-88
2021/12/26 10:21:38;;;;;;;11.13;5.00;;;;;;;;;;5076395;28;20100;-89
2021/12/26 10:24:05;;;;;;;7.07;4.25;;;;;;;;;;5078897;28;20021;-93
2021/12/26 10:26:33;;;;;;;9.40;4.50;;;;;;;;;;5067062;28;20021;-93
2021/12/26 10:29:07;;;;;;;8.60;5.05;;;;;;;;;;5063965;28;20047;-93
2021/12/26 10:31:33;;;;;;;6.88;4.10;;;;;;;;;;5065292;28;20054;-93
2021/12/26 10:33:59;;;;;;;7.18;3.42;;;;;;;;;;5072331;28;20017;-93
2021/12/26 10:41:59;;;;;;;11.77;4.80;;;;;;;;;;5308606;22;20051;-94
2021/12/26 10:52:10;;;;;;;5.35;3.38;;;;;;;;;;5489914;22;20060;-94
2021/12/26 10:54:35;;;;;;;7.18;4.15;;;;;;;;;;5127043;22;20038;-94
2021/12/26 10:57:13;;;;;;;6.07;3.63;;;;;;;;;;5307868;22;20897;-90
2021/12/26 10:59:39;;;;;;;4.40;2.90;;;;;;;;;;5036985;28;20123;-90
2021/12/26 11:02:04;;;;;;;5.78;2.75;;;;;;;;;;5036546;28;20100;-90
2021/12/26 11:04:30;;;;;;;5.30;3.00;;;;;;;;;;5036582;28;20772;-90
2021/12/26 11:07:08;;;;;;;4.78;2.90;;;;;;;;;;5054516;28;20397;-90
2021/12/26 11:09:33;;;;;;;8.82;3.65;;;;;;;;;;5054966;28;20025;-90
2021/12/26 11:12:02;;;;;;;5.53;3.55;;;;;;;;;;5058109;28;20028;-90
2021/12/26 11:14:34;;;;;;;6.43;3.45;;;;;;;;;;5056628;28;20028;-90
2021/12/26 11:19:51;;;;;;;5.45;2.75;;;;;;;;;;2988361;22;20023;31
2021/12/26 11:32:37;;;;;;;4.82;2.80;;;;;;;;;;5013949;28;20520;-90
2021/12/26 11:54:37;;;;;;;5.70;3.13;;;;;;;;;;3974275;22;20475;31
2021/12/26 12:00:05;;;;;;;5.68;2.83;;;;;;;;;;3401243;22;20801;-90
2021/12/26 12:33:47;;;;;;;7.45;2.30;;;;;;;;;;5040320;28;20447;-89
2021/12/26 12:36:28;;;;;;;6.93;2.40;;;;;;;;;;5052143;28;20021;-90
2021/12/26 12:49:51;;;;;;;7.45;3.03;;;;;;;;;;5820393;22;20067;-91
2021/12/26 12:52:39;;;;;;;8.23;3.30;;;;;;;;;;5051512;28;20039;-91
2021/12/26 13:04:01;;;;;;;6.28;3.03;;;;;;;;;;2082275;22;20234;-89
2021/12/26 13:06:27;;;;;;;5.68;2.97;;;;;;;;;;5055090;28;20082;-90
2021/12/26 13:08:53;;;;;;;5.60;2.80;;;;;;;;;;5046536;28;20113;-90
2021/12/26 13:11:18;;;;;;;8.38;2.95;;;;;;;;;;5037253;28;20020;-90
2021/12/26 13:13:43;;;;;;;7.87;3.70;;;;;;;;;;5037109;28;20022;-90
2021/12/26 13:16:08;;;;;;;6.90;3.20;;;;;;;;;;5053718;28;20264;-90
2021/12/26 13:18:36;;;;;;;6.03;3.10;;;;;;;;;;5037220;28;20024;-90
2021/12/26 13:21:09;;;;;;;6.00;3.80;;;;;;;;;;5054834;28;20263;-90
2021/12/26 13:23:36;;;;;;;6.53;3.63;;;;;;;;;;5041132;28;20087;-89
2021/12/26 13:26:03;;;;;;;9.13;3.63;;;;;;;;;;5055058;28;20021;-90
2021/12/26 13:28:28;;;;;;;6.13;3.72;;;;;;;;;;5036828;28;20551;-90
2021/12/26 13:30:55;;;;;;;6.35;3.38;;;;;;;;;;5036917;28;20064;-90
2021/12/26 13:33:25;;;;;;;5.50;3.40;;;;;;;;;;5036480;28;20819;-90
2021/12/26 13:35:52;;;;;;;8.02;3.95;;;;;;;;;;5054403;28;20017;-90
2021/12/26 13:38:18;;;;;;;6.00;3.80;;;;;;;;;;5041498;28;20021;-90
2021/12/26 13:40:44;;;;;;;7.18;3.83;;;;;;;;;;5036333;28;20073;-90
2021/12/26 13:43:10;;;;;;;5.45;3.38;;;;;;;;;;5036503;28;20021;-90
2021/12/26 13:45:43;;;;;;;6.47;3.35;;;;;;;;;;5036764;28;20016;-90
2021/12/26 13:48:09;;;;;;;6.07;3.45;;;;;;;;;;5036545;28;20455;-90
2021/12/26 13:50:34;;;;;;;4.80;3.00;;;;;;;;;;5036364;28;20111;-90
2021/12/26 13:53:01;;;;;;;4.68;3.00;;;;;;;;;;5035734;28;20118;-90
2021/12/26 13:55:26;;;;;;;3.67;2.90;;;;;;;;;;5054296;28;20021;-90
2021/12/26 13:57:58;;;;;;;3.97;2.85;;;;;;;;;;5036141;28;20377;-90
2021/12/26 14:00:24;;;;;;;6.03;2.78;;;;;;;;;;5054335;28;20017;-90
2021/12/26 14:02:50;;;;;;;4.30;2.88;;;;;;;;;;5054399;28;20021;-90
2021/12/26 14:05:18;;;;;;;7.60;3.22;;;;;;;;;;5054216;28;20891;-90
2021/12/26 14:07:49;;;;;;;6.63;3.67;;;;;;;;;;5036223;28;20013;-90
2021/12/26 14:10:21;;;;;;;4.23;3.20;;;;;;;;;;5036185;28;20061;-90
2021/12/26 14:12:49;;;;;;;8.55;3.05;;;;;;;;;;5036770;28;20021;-90
2021/12/26 14:15:25;;;;;;;8.35;3.47;;;;;;;;;;5053911;28;20461;-89
2021/12/26 14:17:56;;;;;;;5.20;2.80;;;;;;;;;;5036143;28;20018;-90
2021/12/26 14:20:22;;;;;;;5.53;3.20;;;;;;;;;;5036115;28;20117;-90
2021/12/26 14:22:47;;;;;;;7.40;3.45;;;;;;;;;;5035723;28;20045;-89
2021/12/26 14:25:12;;;;;;;4.97;3.80;;;;;;;;;;5054189;28;20025;-90
2021/12/26 14:27:40;;;;;;;7.55;3.80;;;;;;;;;;5053950;28;20075;-89
2021/12/26 14:30:06;;;;;;;7.70;3.67;;;;;;;;;;5035816;28;20040;-90
2021/12/26 14:32:31;;;;;;;6.47;3.65;;;;;;;;;;5035922;28;20029;-89
2021/12/26 14:34:56;;;;;;;6.95;3.78;;;;;;;;;;5036070;28;20059;-89
2021/12/26 14:37:23;;;;;;;7.60;3.30;;;;;;;;;;5035958;28;20096;-90
2021/12/26 14:39:53;;;;;;;5.63;3.67;;;;;;;;;;5035885;28;20534;-90
2021/12/26 14:42:22;;;;;;;8.82;3.42;;;;;;;;;;5040128;28;19996;-92
2021/12/26 14:44:49;;;;;;;5.82;3.55;;;;;;;;;;5057473;28;20471;-90
2021/12/26 14:47:26;;;;;;;6.13;3.50;;;;;;;;;;5035687;28;20025;-90
2021/12/26 14:50:07;;;;;;;8.70;3.80;;;;;;;;;;5035988;28;20029;-90
2021/12/26 14:52:39;;;;;;;7.22;4.30;;;;;;;;;;5054420;28;20027;-90
2021/12/26 14:55:06;;;;;;;7.95;4.25;;;;;;;;;;5053820;28;20025;-90
2021/12/26 14:57:33;;;;;;;6.10;4.07;;;;;;;;;;5053801;28;20032;-91
2021/12/26 15:00:00;;;;;;;5.75;3.90;;;;;;;;;;5035788;28;20083;-90
2021/12/26 15:02:33;;;;;;;9.00;4.90;;;;;;;;;;5036365;28;20055;-91
2021/12/26 15:05:25;;;;;;;7.20;4.72;;;;;;;;;;5029039;28;20041;-91
2021/12/26 15:07:52;;;;;;;8.18;5.10;;;;;;;;;;5037606;28;20083;-90
2021/12/26 15:10:19;;;;;;;8.13;5.22;;;;;;;;;;5037074;28;20501;-90
2021/12/26 15:12:46;;;;;;;6.45;4.60;;;;;;;;;;5019885;28;20071;-90
2021/12/26 15:15:11;;;;;;;8.45;5.28;;;;;;;;;;5037473;28;20021;-90
2021/12/26 15:17:36;;;;;;;7.68;4.55;;;;;;;;;;5036378;28;20736;-90
2021/12/26 15:20:18;;;;;;;9.95;4.60;;;;;;;;;;5036103;28;20104;-90
2021/12/26 15:22:45;;;;;;;7.30;4.13;;;;;;;;;;5036552;28;20024;-90
2021/12/26 15:25:11;;;;;;;6.90;4.05;;;;;;;;;;5037246;28;20021;-90
2021/12/26 15:27:36;;;;;;;13.15;4.53;;;;;;;;;;5019182;28;20014;-90
2021/12/26 15:30:17;;;;;;;6.28;4.25;;;;;;;;;;5035581;28;20080;-91
2021/12/26 15:32:45;;;;;;;6.20;4.15;;;;;;;;;;5019205;28;20017;-91
2021/12/26 15:35:10;;;;;;;6.78;4.03;;;;;;;;;;5036786;28;20076;-89
2021/12/26 15:37:35;;;;;;;9.25;4.40;;;;;;;;;;5037303;28;20025;-90
2021/12/26 15:40:08;;;;;;;8.60;4.40;;;;;;;;;;5036130;28;20028;-91
2021/12/26 15:42:33;;;;;;;6.00;4.00;;;;;;;;;;5036801;28;20033;-90
2021/12/26 15:44:58;;;;;;;6.20;4.00;;;;;;;;;;5037017;28;20024;-90
2021/12/26 15:47:24;;;;;;;7.90;5.40;;;;;;;;;;5037428;28;20010;-90
2021/12/26 15:49:49;;;;;;;8.82;5.32;;;;;;;;;;5039776;28;20129;-90
2021/12/26 15:52:14;;;;;;;13.15;5.45;;;;;;;;;;5036668;28;20452;-90
2021/12/26 15:54:39;;;;;;;6.53;4.65;;;;;;;;;;5035473;28;20426;-90
2021/12/26 15:57:05;;;;;;;9.20;5.07;;;;;;;;;;5019581;28;20021;-90
2021/12/26 15:59:30;;;;;;;10.07;5.05;;;;;;;;;;5035734;28;20120;-90
2021/12/26 16:01:55;;;;;;;9.85;5.45;;;;;;;;;;5018896;28;20021;-90
2021/12/26 16:04:20;;;;;;;7.93;4.68;;;;;;;;;;5051585;28;20513;-90
2021/12/26 16:06:46;;;;;;;8.85;5.63;;;;;;;;;;5036850;28;20148;-90
2021/12/26 16:09:11;;;;;;;8.20;5.25;;;;;;;;;;5036815;28;20727;-90
2021/12/26 16:11:38;;;;;;;8.90;5.15;;;;;;;;;;5053003;28;20111;-90
2021/12/26 16:14:03;;;;;;;7.28;5.28;;;;;;;;;;5036244;28;20037;-90
2021/12/26 16:16:28;;;;;;;6.70;4.68;;;;;;;;;;5036723;28;20387;-90
2021/12/26 16:18:54;;;;;;;7.07;4.75;;;;;;;;;;5035796;28;20496;-90
2021/12/26 16:21:19;;;;;;;7.05;4.10;;;;;;;;;;5036779;28;20010;-90